createdAt,value
2017-12-02T00:00:25.396Z,83.5
2017-12-02T00:01:25.406Z,83.4
2017-12-02T00:02:25.417Z,83.5
2017-12-02T00:03:25.437Z,83.5
2017-12-02T00:04:25.173Z,83.4
2017-12-02T00:05:25.186Z,83.4
2017-12-02T00:06:25.201Z,83.5
2017-12-02T00:07:25.476Z,83.5
2017-12-02T00:08:25.486Z,83.4
2017-12-02T00:09:25.496Z,83.59
2017-12-02T00:10:25.507Z,83.22
2017-12-02T00:11:25.521Z,83.59
2017-12-02T00:12:25.529Z,83.31
2017-12-02T00:13:25.542Z,83.5
2017-12-02T00:14:25.555Z,83.69
2017-12-02T00:15:25.566Z,83.31
2017-12-02T00:16:25.576Z,83.31
2017-12-02T00:17:25.586Z,83.03
2017-12-02T00:18:25.332Z,83.4
2017-12-02T00:19:25.607Z,83.22
2017-12-02T00:20:25.623Z,83.31
2017-12-02T00:21:25.632Z,83.69
2017-12-02T00:22:25.639Z,83.5
2017-12-02T00:23:25.650Z,83.59
2017-12-02T00:24:25.397Z,83.22
2017-12-02T00:25:25.675Z,83.22
2017-12-02T00:26:25.687Z,83.31
2017-12-02T00:27:25.699Z,83.31
2017-12-02T00:28:25.715Z,83.31
2017-12-02T00:29:25.716Z,83.22
2017-12-02T00:30:25.733Z,83.31
2017-12-02T00:31:25.476Z,83.5
2017-12-02T00:32:25.758Z,83.4
2017-12-02T00:33:25.759Z,83.4
2017-12-02T00:34:25.775Z,83.4
2017-12-02T00:35:25.519Z,83.12
2017-12-02T00:36:25.799Z,83.22
2017-12-02T00:37:25.818Z,83.03
2017-12-02T00:38:25.827Z,83.31
2017-12-02T00:39:25.831Z,83.22
2017-12-02T00:40:25.841Z,83.22
2017-12-02T00:41:25.851Z,83.03
2017-12-02T00:42:25.601Z,83.12
2017-12-02T00:43:25.608Z,83.22
2017-12-02T00:44:25.884Z,83.31
2017-12-02T00:45:25.632Z,83.12
2017-12-02T00:46:25.909Z,83.31
2017-12-02T00:47:25.920Z,83.12
2017-12-02T00:48:25.927Z,83.03
2017-12-02T00:49:25.941Z,83.69
2017-12-02T00:50:25.949Z,83.4
2017-12-02T00:51:25.960Z,83.4
2017-12-02T00:52:25.971Z,83.5
2017-12-02T00:53:25.989Z,83.59
2017-12-02T00:54:25.999Z,83.69
2017-12-02T00:55:26.007Z,83.5
2017-12-02T00:56:25.755Z,83.59
2017-12-02T00:57:25.768Z,83.22
2017-12-02T00:58:26.043Z,83.31
2017-12-02T00:59:26.051Z,83.4
2017-12-02T01:00:25.798Z,83.69
2017-12-02T01:01:25.809Z,83.22
2017-12-02T01:02:26.089Z,83.5
2017-12-02T01:03:25.838Z,83.59
2017-12-02T01:04:26.109Z,83.5
2017-12-02T01:05:26.116Z,83.4
2017-12-02T01:06:26.131Z,83.59
2017-12-02T01:07:26.141Z,83.31
2017-12-02T01:08:26.151Z,83.5
2017-12-02T01:09:26.168Z,83.31
2017-12-02T01:10:26.180Z,83.5
2017-12-02T01:11:26.186Z,83.31
2017-12-02T01:12:25.929Z,83.5
2017-12-02T01:13:26.210Z,83.4
2017-12-02T01:14:25.953Z,83.5
2017-12-02T01:15:26.233Z,83.5
2017-12-02T01:16:25.973Z,83.78
2017-12-02T01:17:25.988Z,83.4
2017-12-02T01:18:26.264Z,83.4
2017-12-02T01:19:26.006Z,83.31
2017-12-02T01:20:26.293Z,83.59
2017-12-02T01:21:26.030Z,83.5
2017-12-02T01:22:26.307Z,83.4
2017-12-02T01:23:26.315Z,83.4
2017-12-02T01:24:26.331Z,83.4
2017-12-02T01:25:26.342Z,83.4
2017-12-02T01:26:26.350Z,83.22
2017-12-02T01:27:26.359Z,83.31
2017-12-02T01:28:26.376Z,83.31
2017-12-02T01:29:26.119Z,83.4
2017-12-02T01:30:26.394Z,83.22
2017-12-02T01:31:26.408Z,83.4
2017-12-02T01:32:26.424Z,83.5
2017-12-02T01:33:26.425Z,83.59
2017-12-02T01:34:26.449Z,83.5
2017-12-02T01:35:26.185Z,83.31
2017-12-02T01:36:26.464Z,83.5
2017-12-02T01:37:26.474Z,83.4
2017-12-02T01:38:26.483Z,83.03
2017-12-02T01:39:26.226Z,83.12
2017-12-02T01:40:28.664Z,83.22
2017-12-02T01:41:26.733Z,83.5
2017-12-02T01:42:26.534Z,83.5
2017-12-02T01:43:26.543Z,83.69
2017-12-02T01:44:26.553Z,83.59
2017-12-02T01:45:26.296Z,83.5
2017-12-02T01:46:26.312Z,83.03
2017-12-02T01:47:26.320Z,83.31
2017-12-02T01:48:26.604Z,83.5
2017-12-02T01:49:26.347Z,83.12
2017-12-02T01:50:26.627Z,83.03
2017-12-02T01:51:26.366Z,83.22
2017-12-02T01:52:26.648Z,83.31
2017-12-02T01:53:26.655Z,83.22
2017-12-02T01:54:26.403Z,83.12
2017-12-02T01:55:26.685Z,83.31
2017-12-02T01:56:26.690Z,83.31
2017-12-02T01:57:26.704Z,83.59
2017-12-02T01:58:26.711Z,83.4
2017-12-02T01:59:26.726Z,82.93
2017-12-02T02:00:26.733Z,82.93
2017-12-02T02:01:26.746Z,83.31
2017-12-02T02:02:26.757Z,83.4
2017-12-02T02:03:26.770Z,83.22
2017-12-02T02:04:26.512Z,82.93
2017-12-02T02:05:26.793Z,82.93
2017-12-02T02:06:26.798Z,83.4
2017-12-02T02:07:26.811Z,83.4
2017-12-02T02:08:26.827Z,83.03
2017-12-02T02:09:26.831Z,83.5
2017-12-02T02:10:26.844Z,82.84
2017-12-02T02:11:27.076Z,83.5
2017-12-02T02:12:26.865Z,83.03
2017-12-02T02:13:26.873Z,83.03
2017-12-02T02:14:26.888Z,82.93
2017-12-02T02:15:26.898Z,83.31
2017-12-02T02:16:26.911Z,83.12
2017-12-02T02:17:26.923Z,83.03
2017-12-02T02:18:26.932Z,83.22
2017-12-02T02:19:26.677Z,83.12
2017-12-02T02:20:26.953Z,83.12
2017-12-02T02:21:26.968Z,83.12
2017-12-02T02:22:26.976Z,83.03
2017-12-02T02:23:26.726Z,82.93
2017-12-02T02:24:27.001Z,83.22
2017-12-02T02:25:27.013Z,83.31
2017-12-02T02:26:27.023Z,83.31
2017-12-02T02:27:26.764Z,82.93
2017-12-02T02:28:27.039Z,83.03
2017-12-02T02:29:27.053Z,83.12
2017-12-02T02:30:27.066Z,82.84
2017-12-02T02:31:27.514Z,83.31
2017-12-02T02:32:27.088Z,83.12
2017-12-02T02:33:26.829Z,83.03
2017-12-02T02:34:27.112Z,83.31
2017-12-02T02:35:27.156Z,83.12
2017-12-02T02:36:27.140Z,83.31
2017-12-02T02:37:26.878Z,83.31
2017-12-02T02:38:27.157Z,83.12
2017-12-02T02:39:27.161Z,82.93
2017-12-02T02:40:26.908Z,83.22
2017-12-02T02:41:26.917Z,83.22
2017-12-02T02:42:27.198Z,83.12
2017-12-02T02:43:27.207Z,83.12
2017-12-02T02:44:27.225Z,83.31
2017-12-02T02:45:27.232Z,83.12
2017-12-02T02:46:27.240Z,83.22
2017-12-02T02:47:27.250Z,82.84
2017-12-02T02:48:27.270Z,83.12
2017-12-02T02:49:27.276Z,83.12
2017-12-02T02:50:27.018Z,83.12
2017-12-02T02:51:27.290Z,83.22
2017-12-02T02:52:27.308Z,83.12
2017-12-02T02:53:27.055Z,83.03
2017-12-02T02:54:27.336Z,83.22
2017-12-02T02:55:27.336Z,83.03
2017-12-02T02:56:27.346Z,83.22
2017-12-02T02:57:27.359Z,83.12
2017-12-02T02:58:27.373Z,83.12
2017-12-02T02:59:27.379Z,83.12
2017-12-02T03:00:27.396Z,83.22
2017-12-02T03:01:27.414Z,82.84
2017-12-02T03:02:27.414Z,82.84
2017-12-02T03:03:27.425Z,82.93
2017-12-02T03:04:27.438Z,83.22
2017-12-02T03:05:27.458Z,82.93
2017-12-02T03:06:27.466Z,83.12
2017-12-02T03:07:27.471Z,82.93
2017-12-02T03:08:27.485Z,82.74
2017-12-02T03:09:27.496Z,82.84
2017-12-02T03:10:27.504Z,82.65
2017-12-02T03:11:27.559Z,82.74
2017-12-02T03:12:27.524Z,82.84
2017-12-02T03:13:27.542Z,82.74
2017-12-02T03:14:27.548Z,82.84
2017-12-02T03:15:27.565Z,82.46
2017-12-02T03:16:27.303Z,82.84
2017-12-02T03:17:27.584Z,82.93
2017-12-02T03:18:27.594Z,82.93
2017-12-02T03:19:27.339Z,82.93
2017-12-02T03:20:27.611Z,83.03
2017-12-02T03:21:27.357Z,82.74
2017-12-02T03:22:27.638Z,82.84
2017-12-02T03:23:27.649Z,82.46
2017-12-02T03:24:27.662Z,82.84
2017-12-02T03:25:27.667Z,82.46
2017-12-02T03:26:27.413Z,82.84
2017-12-02T03:27:27.690Z,82.65
2017-12-02T03:28:27.705Z,83.12
2017-12-02T03:29:27.714Z,82.93
2017-12-02T03:30:27.459Z,82.74
2017-12-02T03:31:27.789Z,83.03
2017-12-02T03:32:27.479Z,82.74
2017-12-02T03:33:27.823Z,82.55
2017-12-02T03:34:27.505Z,82.55
2017-12-02T03:35:27.781Z,82.74
2017-12-02T03:36:27.790Z,82.55
2017-12-02T03:37:27.532Z,82.36
2017-12-02T03:38:27.813Z,82.93
2017-12-02T03:39:27.831Z,82.93
2017-12-02T03:40:27.836Z,82.93
2017-12-02T03:41:27.579Z,82.93
2017-12-02T03:42:27.586Z,82.98
2017-12-02T03:43:27.870Z,83.03
2017-12-02T03:44:27.875Z,83.03
2017-12-02T03:45:27.626Z,82.46
2017-12-02T03:46:27.634Z,82.65
2017-12-02T03:47:27.914Z,82.55
2017-12-02T03:48:27.658Z,82.46
2017-12-02T03:49:27.663Z,82.74
2017-12-02T03:50:27.947Z,82.74
2017-12-02T03:51:29.155Z,82.98
2017-12-02T03:52:27.966Z,82.79
2017-12-02T03:53:27.982Z,82.98
2017-12-02T03:54:27.987Z,82.89
2017-12-02T03:55:28.003Z,82.51
2017-12-02T03:56:28.009Z,82.84
2017-12-02T03:57:28.017Z,82.84
2017-12-02T03:58:28.033Z,82.7
2017-12-02T03:59:28.048Z,82.74
2017-12-02T04:00:28.047Z,82.79
2017-12-02T04:01:28.060Z,82.74
2017-12-02T04:02:28.075Z,82.74
2017-12-02T04:03:28.080Z,82.55
2017-12-02T04:04:28.095Z,82.46
2017-12-02T04:05:28.102Z,82.74
2017-12-02T04:06:27.861Z,82.74
2017-12-02T04:07:28.129Z,82.74
2017-12-02T04:08:28.141Z,82.74
2017-12-02T04:09:28.150Z,82.93
2017-12-02T04:10:28.169Z,82.74
2017-12-02T04:11:28.174Z,82.7
2017-12-02T04:12:28.221Z,82.84
2017-12-02T04:13:28.193Z,82.74
2017-12-02T04:14:28.204Z,82.7
2017-12-02T04:15:28.223Z,82.6
2017-12-02T04:16:28.234Z,82.79
2017-12-02T04:17:27.971Z,82.98
2017-12-02T04:18:28.246Z,82.98
2017-12-02T04:19:28.262Z,82.84
2017-12-02T04:20:28.005Z,82.93
2017-12-02T04:21:42.904Z,82.93
2017-12-02T04:22:28.292Z,82.79
2017-12-02T04:23:28.302Z,82.84
2017-12-02T04:24:28.313Z,82.89
2017-12-02T04:25:28.359Z,82.79
2017-12-02T04:26:28.333Z,82.6
2017-12-02T04:27:28.352Z,82.84
2017-12-02T04:28:28.366Z,82.79
2017-12-02T04:29:28.370Z,82.89
2017-12-02T04:30:28.416Z,82.84
2017-12-02T04:31:28.393Z,82.93
2017-12-02T04:32:28.415Z,82.84
2017-12-02T04:33:28.412Z,82.79
2017-12-02T04:34:28.421Z,82.79
2017-12-02T04:35:28.170Z,82.79
2017-12-02T04:36:28.447Z,82.98
2017-12-02T04:37:28.192Z,82.89
2017-12-02T04:38:28.203Z,82.42
2017-12-02T04:39:28.481Z,82.7
2017-12-02T04:40:28.223Z,82.42
2017-12-02T04:41:43.121Z,82.93
2017-12-02T04:42:28.514Z,82.32
2017-12-02T04:43:28.255Z,82.13
2017-12-02T04:44:28.532Z,82.23
2017-12-02T04:45:28.274Z,82.13
2017-12-02T04:46:28.556Z,82.32
2017-12-02T04:47:28.566Z,82.17
2017-12-02T04:48:28.579Z,82.42
2017-12-02T04:49:28.592Z,82.6
2017-12-02T04:50:28.600Z,82.23
2017-12-02T04:51:28.343Z,82.55
2017-12-02T04:52:28.633Z,82.23
2017-12-02T04:53:28.630Z,82.6
2017-12-02T04:54:28.639Z,82.6
2017-12-02T04:55:28.695Z,82.6
2017-12-02T04:56:28.664Z,82.6
2017-12-02T04:57:28.673Z,82.65
2017-12-02T04:58:28.417Z,82.6
2017-12-02T04:59:28.701Z,82.23
2017-12-02T05:00:28.711Z,82.51
2017-12-02T05:01:28.721Z,82.23
2017-12-02T05:02:28.730Z,82.6
2017-12-02T05:03:28.476Z,82.04
2017-12-02T05:04:28.753Z,82.51
2017-12-02T05:05:28.755Z,82.13
2017-12-02T05:06:28.769Z,82.23
2017-12-02T05:07:28.514Z,82.04
2017-12-02T05:08:28.790Z,82.13
2017-12-02T05:09:28.540Z,82.36
2017-12-02T05:10:28.816Z,82.13
2017-12-02T05:11:28.567Z,82.13
2017-12-02T05:12:28.852Z,82.04
2017-12-02T05:13:28.849Z,82.04
2017-12-02T05:14:28.860Z,82.04
2017-12-02T05:15:28.602Z,81.98
2017-12-02T05:16:28.883Z,81.94
2017-12-02T05:17:28.631Z,82.13
2017-12-02T05:18:28.635Z,82.04
2017-12-02T05:19:28.911Z,82.04
2017-12-02T05:20:28.921Z,82.04
2017-12-02T05:21:28.933Z,81.85
2017-12-02T05:22:28.944Z,81.94
2017-12-02T05:23:28.953Z,82.04
2017-12-02T05:24:28.967Z,82.04
2017-12-02T05:25:28.982Z,82.13
2017-12-02T05:26:29.043Z,82.13
2017-12-02T05:27:28.734Z,82.13
2017-12-02T05:28:29.005Z,82.04
2017-12-02T05:29:28.755Z,82.04
2017-12-02T05:30:28.762Z,82.04
2017-12-02T05:31:29.041Z,82.13
2017-12-02T05:32:29.055Z,82.04
2017-12-02T05:33:28.804Z,81.85
2017-12-02T05:34:29.085Z,82.04
2017-12-02T05:35:29.084Z,81.85
2017-12-02T05:36:29.100Z,81.85
2017-12-02T05:37:29.113Z,81.85
2017-12-02T05:38:28.880Z,82.04
2017-12-02T05:39:29.131Z,81.94
2017-12-02T05:40:29.146Z,82.04
2017-12-02T05:41:29.181Z,81.85
2017-12-02T05:42:28.908Z,82.04
2017-12-02T05:43:29.179Z,82.23
2017-12-02T05:44:29.194Z,81.88
2017-12-02T05:45:29.200Z,82.08
2017-12-02T05:46:29.201Z,82.51
2017-12-02T05:47:28.950Z,81.94
2017-12-02T05:48:29.226Z,81.94
2017-12-02T05:49:29.253Z,82.04
2017-12-02T05:50:29.243Z,82.04
2017-12-02T05:51:29.263Z,81.85
2017-12-02T05:52:29.004Z,82.04
2017-12-02T05:53:29.328Z,81.85
2017-12-02T05:54:29.027Z,81.85
2017-12-02T05:55:29.309Z,81.88
2017-12-02T05:56:29.312Z,81.85
2017-12-02T05:57:29.330Z,81.94
2017-12-02T05:58:29.339Z,82.04
2017-12-02T05:59:29.349Z,82.04
2017-12-02T06:00:29.356Z,81.94
2017-12-02T06:01:30.636Z,82.13
2017-12-02T06:02:29.393Z,82.32
2017-12-02T06:03:29.390Z,82.13
2017-12-02T06:04:29.402Z,82.04
2017-12-02T06:05:29.414Z,82.04
2017-12-02T06:06:29.425Z,81.94
2017-12-02T06:07:29.435Z,81.85
2017-12-02T06:08:29.440Z,82.04
2017-12-02T06:09:29.187Z,81.94
2017-12-02T06:10:29.467Z,82.08
2017-12-02T06:11:29.476Z,82.04
2017-12-02T06:12:29.495Z,82.23
2017-12-02T06:13:29.500Z,82.04
2017-12-02T06:14:29.517Z,82.13
2017-12-02T06:15:29.521Z,81.94
2017-12-02T06:16:29.528Z,82.13
2017-12-02T06:17:29.556Z,81.88
2017-12-02T06:18:29.552Z,81.94
2017-12-02T06:19:29.567Z,81.85
2017-12-02T06:20:29.631Z,82.13
2017-12-02T06:21:29.324Z,81.85
2017-12-02T06:22:29.331Z,81.85
2017-12-02T06:23:29.609Z,81.85
2017-12-02T06:24:29.620Z,82.04
2017-12-02T06:25:29.646Z,81.94
2017-12-02T06:26:29.641Z,82.23
2017-12-02T06:27:29.658Z,82.23
2017-12-02T06:28:29.662Z,82.32
2017-12-02T06:29:29.675Z,82.42
2017-12-02T06:30:29.699Z,82.51
2017-12-02T06:31:29.692Z,82.04
2017-12-02T06:32:29.718Z,81.94
2017-12-02T06:33:29.723Z,81.94
2017-12-02T06:34:29.727Z,82.23
2017-12-02T06:35:29.741Z,82.42
2017-12-02T06:36:29.752Z,82.23
2017-12-02T06:37:29.761Z,81.94
2017-12-02T06:38:29.771Z,81.94
2017-12-02T06:39:29.826Z,81.88
2017-12-02T06:40:29.789Z,82.04
2017-12-02T06:41:29.800Z,81.75
2017-12-02T06:42:29.809Z,81.94
2017-12-02T06:43:29.824Z,82.08
2017-12-02T06:44:29.831Z,82.13
2017-12-02T06:45:29.847Z,82.04
2017-12-02T06:46:29.853Z,82.04
2017-12-02T06:47:29.865Z,82.04
2017-12-02T06:48:29.878Z,81.94
2017-12-02T06:49:29.824Z,81.85
2017-12-02T06:50:29.895Z,81.94
2017-12-02T06:51:29.908Z,81.85
2017-12-02T06:52:29.653Z,81.94
2017-12-02T06:53:29.668Z,82.04
2017-12-02T06:54:29.946Z,82.13
2017-12-02T06:55:29.954Z,81.94
2017-12-02T06:56:29.963Z,81.85
2017-12-02T06:57:29.975Z,81.85
2017-12-02T06:58:29.989Z,81.85
2017-12-02T06:59:30.002Z,81.85
2017-12-02T07:00:30.010Z,82.08
2017-12-02T07:01:30.015Z,81.94
2017-12-02T07:02:30.024Z,82.42
2017-12-02T07:03:29.774Z,82.04
2017-12-02T07:04:30.050Z,81.94
2017-12-02T07:05:30.061Z,82.13
2017-12-02T07:06:30.075Z,82.23
2017-12-02T07:07:30.086Z,81.85
2017-12-02T07:08:29.830Z,81.85
2017-12-02T07:09:30.109Z,81.85
2017-12-02T07:10:30.182Z,81.85
2017-12-02T07:11:30.122Z,82.04
2017-12-02T07:12:30.138Z,81.94
2017-12-02T07:13:30.148Z,82.13
2017-12-02T07:14:29.889Z,81.94
2017-12-02T07:15:29.897Z,82.04
2017-12-02T07:16:30.176Z,82.13
2017-12-02T07:17:30.188Z,81.94
2017-12-02T07:18:30.203Z,82.04
2017-12-02T07:19:30.216Z,81.85
2017-12-02T07:20:30.230Z,82.04
2017-12-02T07:21:30.236Z,82.17
2017-12-02T07:22:30.006Z,81.94
2017-12-02T07:23:30.255Z,82.13
2017-12-02T07:24:29.995Z,82.23
2017-12-02T07:25:30.278Z,82.42
2017-12-02T07:26:30.283Z,82.42
2017-12-02T07:27:30.034Z,82.42
2017-12-02T07:28:30.309Z,82.13
2017-12-02T07:29:30.317Z,82.04
2017-12-02T07:30:30.331Z,82.04
2017-12-02T07:31:30.076Z,81.98
2017-12-02T07:32:30.083Z,82.04
2017-12-02T07:33:30.366Z,81.98
2017-12-02T07:34:30.376Z,82.13
2017-12-02T07:35:30.384Z,82.13
2017-12-02T07:36:30.394Z,82.04
2017-12-02T07:37:30.411Z,82.04
2017-12-02T07:38:30.420Z,82.08
2017-12-02T07:39:30.430Z,82.17
2017-12-02T07:40:30.448Z,82.08
2017-12-02T07:41:30.453Z,82.08
2017-12-02T07:42:30.195Z,81.98
2017-12-02T07:43:30.480Z,81.98
2017-12-02T07:44:30.485Z,82.55
2017-12-02T07:45:30.494Z,82.17
2017-12-02T07:46:30.504Z,82.84
2017-12-02T07:47:30.517Z,82.84
2017-12-02T07:48:30.524Z,82.84
2017-12-02T07:49:30.270Z,82.93
2017-12-02T07:50:30.551Z,82.74
2017-12-02T07:51:30.291Z,82.27
2017-12-02T07:52:30.568Z,82.27
2017-12-02T07:53:30.318Z,82.36
2017-12-02T07:54:30.590Z,82.74
2017-12-02T07:55:30.602Z,82.84
2017-12-02T07:56:30.612Z,82.93
2017-12-02T07:57:30.628Z,83.03
2017-12-02T07:58:30.638Z,82.65
2017-12-02T07:59:30.643Z,82.84
2017-12-02T08:00:30.386Z,82.74
2017-12-02T08:01:30.667Z,82.36
2017-12-02T08:02:30.683Z,82.93
2017-12-02T08:03:30.684Z,82.84
2017-12-02T08:04:30.700Z,82.84
2017-12-02T08:05:30.727Z,82.84
2017-12-02T08:06:30.723Z,82.84
2017-12-02T08:07:30.470Z,82.84
2017-12-02T08:08:30.742Z,82.84
2017-12-02T08:09:30.756Z,82.84
2017-12-02T08:10:30.764Z,82.93
2017-12-02T08:11:30.786Z,82.93
2017-12-02T08:12:30.788Z,82.93
2017-12-02T08:13:30.796Z,82.74
2017-12-02T08:14:30.807Z,82.84
2017-12-02T08:15:30.823Z,82.84
2017-12-02T08:16:30.956Z,82.74
2017-12-02T08:17:30.845Z,82.74
2017-12-02T08:18:30.855Z,82.46
2017-12-02T08:19:30.864Z,82.46
2017-12-02T08:20:30.883Z,82.27
2017-12-02T08:21:30.889Z,82.46
2017-12-02T08:22:30.899Z,82.46
2017-12-02T08:23:30.908Z,82.27
2017-12-02T08:24:30.923Z,82.17
2017-12-02T08:25:30.967Z,81.98
2017-12-02T08:26:30.944Z,82.08
2017-12-02T08:27:30.959Z,81.88
2017-12-02T08:28:30.966Z,81.79
2017-12-02T08:29:30.975Z,81.98
2017-12-02T08:30:30.989Z,81.88
2017-12-02T08:31:31.000Z,82.74
2017-12-02T08:32:31.009Z,82.08
2017-12-02T08:33:30.753Z,82.27
2017-12-02T08:34:31.028Z,82.08
2017-12-02T08:36:54.481Z,82.36
2017-12-02T08:37:54.485Z,82.36
2017-12-02T08:38:54.502Z,81.98
2017-12-02T08:39:54.517Z,82.5
2017-12-02T08:40:54.521Z,82.03
2017-12-02T08:41:54.539Z,82.5
2017-12-02T08:42:54.542Z,82.4
2017-12-02T08:43:54.560Z,82.59
2017-12-02T08:44:54.571Z,82.03
2017-12-02T08:45:54.585Z,82.21
2017-12-02T08:46:54.321Z,82.31
2017-12-02T08:47:54.616Z,82.4
2017-12-02T08:48:54.614Z,82.21
2017-12-02T08:49:54.356Z,82.21
2017-12-02T08:50:54.636Z,81.93
2017-12-02T08:51:54.653Z,82.5
2017-12-02T08:52:54.656Z,82.4
2017-12-02T08:53:54.402Z,81.55
2017-12-02T08:54:54.683Z,81.55
2017-12-02T08:55:54.692Z,82.12
2017-12-02T08:56:54.703Z,82.31
2017-12-02T08:57:54.763Z,81.65
2017-12-02T08:58:54.726Z,82.4
2017-12-02T08:59:54.735Z,81.93
2017-12-02T09:00:54.750Z,82.03
2017-12-02T09:01:54.762Z,82.31
2017-12-02T09:02:54.772Z,82.31
2017-12-02T09:03:54.517Z,82.31
2017-12-02T09:04:54.795Z,82.31
2017-12-02T09:05:54.538Z,82.31
2017-12-02T09:06:54.556Z,82.12
2017-12-02T09:07:54.889Z,81.65
2017-12-02T09:08:54.839Z,82.21
2017-12-02T09:09:54.857Z,82.31
2017-12-02T09:10:54.861Z,81.93
2017-12-02T09:11:54.876Z,81.93
2017-12-02T09:12:54.889Z,81.93
2017-12-02T09:13:54.892Z,82.12
2017-12-02T09:14:54.913Z,82.21
2017-12-02T09:15:54.918Z,81.93
2017-12-02T09:16:54.664Z,82.03
2017-12-02T09:17:54.940Z,82.03
2017-12-02T09:18:54.956Z,81.93
2017-12-02T09:19:54.966Z,82.31
2017-12-02T09:20:54.976Z,82.4
2017-12-02T09:21:54.986Z,82.21
2017-12-02T09:22:55.013Z,82.03
2017-12-02T09:23:55.012Z,81.97
2017-12-02T09:24:55.028Z,82.12
2017-12-02T09:25:54.769Z,82.12
2017-12-02T09:26:55.048Z,81.45
2017-12-02T09:27:54.787Z,81.59
2017-12-02T09:28:55.072Z,81.78
2017-12-02T09:29:55.080Z,81.49
2017-12-02T09:30:55.104Z,82.35
2017-12-02T09:31:54.835Z,81.49
2017-12-02T09:32:54.845Z,81.68
2017-12-02T09:33:55.128Z,81.49
2017-12-02T09:34:55.173Z,81.68
2017-12-02T09:35:55.150Z,81.87
2017-12-02T09:36:55.162Z,81.78
2017-12-02T09:37:54.907Z,81.68
2017-12-02T09:38:54.919Z,81.78
2017-12-02T09:39:55.204Z,81.4
2017-12-02T09:40:55.206Z,81.4
2017-12-02T09:41:55.227Z,81.78
2017-12-02T09:42:55.232Z,81.59
2017-12-02T09:43:54.980Z,81.78
2017-12-02T09:44:55.267Z,81.3
2017-12-02T09:45:55.272Z,81.59
2017-12-02T09:46:55.283Z,81.59
2017-12-02T09:47:55.295Z,81.4
2017-12-02T09:48:55.303Z,81.49
2017-12-02T09:49:55.318Z,81.49
2017-12-02T09:50:55.334Z,81.87
2017-12-02T09:51:55.341Z,81.49
2017-12-02T09:52:55.352Z,81.49
2017-12-02T09:53:55.362Z,81.21
2017-12-02T09:54:55.108Z,81.4
2017-12-02T09:55:55.394Z,81.59
2017-12-02T09:56:55.132Z,81.49
2017-12-02T09:57:55.406Z,81.12
2017-12-02T09:58:55.162Z,81.12
2017-12-02T09:59:55.437Z,81.21
2017-12-02T10:00:55.449Z,80.93
2017-12-02T10:01:55.463Z,81.12
2017-12-02T10:02:55.475Z,81.21
2017-12-02T10:03:55.486Z,80.93
2017-12-02T10:04:55.500Z,81.3
2017-12-02T10:05:55.512Z,81.3
2017-12-02T10:06:55.587Z,81.3
2017-12-02T10:07:55.264Z,81.12
2017-12-02T10:08:55.548Z,81.12
2017-12-02T10:09:55.287Z,81.12
2017-12-02T10:10:55.569Z,81.12
2017-12-02T10:11:55.580Z,81.12
2017-12-02T10:12:55.599Z,81.3
2017-12-02T10:13:55.337Z,81.3
2017-12-02T10:14:55.614Z,81.21
2017-12-02T10:15:55.641Z,81.12
2017-12-02T10:16:55.639Z,81.12
2017-12-02T10:17:55.660Z,81.21
2017-12-02T10:18:55.398Z,81.21
2017-12-02T10:19:55.678Z,80.93
2017-12-02T10:20:55.420Z,81.02
2017-12-02T10:21:55.704Z,81.12
2017-12-02T10:22:55.480Z,81.12
2017-12-02T10:23:55.726Z,81.21
2017-12-02T10:24:55.742Z,81.4
2017-12-02T10:25:55.814Z,81.12
2017-12-02T10:26:55.759Z,81.21
2017-12-02T10:27:55.774Z,81.3
2017-12-02T10:28:55.785Z,81.3
2017-12-02T10:29:55.795Z,81.3
2017-12-02T10:30:55.814Z,81.21
2017-12-02T10:31:55.821Z,81.02
2017-12-02T10:32:55.838Z,81.21
2017-12-02T10:33:55.579Z,81.12
2017-12-02T10:34:55.593Z,81.12
2017-12-02T10:35:55.873Z,81.12
2017-12-02T10:36:55.884Z,81.02
2017-12-02T10:37:55.894Z,81.02
2017-12-02T10:38:55.644Z,80.93
2017-12-02T10:39:55.653Z,80.74
2017-12-02T10:40:55.666Z,80.93
2017-12-02T10:41:55.946Z,80.93
2017-12-02T10:42:55.961Z,80.83
2017-12-02T10:43:55.700Z,80.83
2017-12-02T10:44:55.980Z,81.12
2017-12-02T10:45:55.728Z,80.93
2017-12-02T10:46:55.742Z,80.64
2017-12-02T10:47:56.021Z,80.93
2017-12-02T10:48:56.027Z,81.12
2017-12-02T10:49:55.778Z,80.64
2017-12-02T10:50:56.067Z,81.02
2017-12-02T10:51:56.069Z,80.74
2017-12-02T10:52:56.076Z,80.64
2017-12-02T10:53:55.840Z,81.12
2017-12-02T10:54:56.108Z,80.83
2017-12-02T10:55:56.115Z,80.93
2017-12-02T10:56:55.861Z,81.21
2017-12-02T10:57:56.142Z,81.21
2017-12-02T10:58:56.155Z,81.3
2017-12-02T10:59:56.173Z,81.12
2017-12-02T11:00:56.183Z,81.21
2017-12-02T11:01:55.923Z,81.25
2017-12-02T11:02:56.204Z,81.35
2017-12-02T11:03:56.217Z,81.21
2017-12-02T11:04:56.229Z,81.25
2017-12-02T11:05:56.238Z,81.35
2017-12-02T11:06:55.987Z,81.44
2017-12-02T11:07:56.272Z,81.25
2017-12-02T11:08:56.012Z,81.35
2017-12-02T11:09:56.289Z,81.16
2017-12-02T11:10:56.324Z,81.25
2017-12-02T11:11:56.310Z,81.25
2017-12-02T11:12:56.329Z,80.96
2017-12-02T11:13:56.342Z,81.25
2017-12-02T11:14:56.080Z,81.25
2017-12-02T11:15:56.098Z,81.16
2017-12-02T11:16:56.380Z,81.16
2017-12-02T11:17:56.122Z,81.35
2017-12-02T11:18:56.401Z,81.25
2017-12-02T11:19:56.511Z,81.16
2017-12-02T11:20:56.434Z,81.06
2017-12-02T11:21:56.172Z,81.35
2017-12-02T11:22:56.456Z,81.35
2017-12-02T11:23:56.458Z,81.25
2017-12-02T11:24:56.476Z,81.16
2017-12-02T11:25:56.490Z,80.58
2017-12-02T11:26:56.499Z,81.06
2017-12-02T11:27:56.513Z,81.06
2017-12-02T11:28:56.529Z,81.16
2017-12-02T11:29:56.539Z,80.96
2017-12-02T11:30:56.551Z,81.06
2017-12-02T11:31:56.569Z,80.77
2017-12-02T11:32:56.570Z,80.77
2017-12-02T11:33:56.588Z,80.58
2017-12-02T11:34:56.603Z,80.77
2017-12-02T11:35:56.618Z,80.77
2017-12-02T11:36:56.621Z,80.68
2017-12-02T11:37:56.635Z,80.87
2017-12-02T11:38:56.650Z,80.68
2017-12-02T11:39:56.663Z,80.58
2017-12-02T11:40:56.672Z,80.68
2017-12-02T11:41:56.686Z,80.87
2017-12-02T11:42:56.706Z,80.49
2017-12-02T11:43:56.442Z,80.68
2017-12-02T11:44:56.460Z,80.68
2017-12-02T11:45:56.739Z,80.87
2017-12-02T11:46:56.750Z,80.3
2017-12-02T11:47:56.497Z,80.68
2017-12-02T11:48:56.778Z,80.58
2017-12-02T11:49:56.521Z,80.49
2017-12-02T11:50:56.538Z,80.58
2017-12-02T11:51:56.815Z,80.58
2017-12-02T11:52:56.830Z,80.4
2017-12-02T11:53:56.836Z,80.3
2017-12-02T11:54:56.850Z,80.3
2017-12-02T11:55:56.864Z,80.11
2017-12-02T11:56:56.610Z,80.49
2017-12-02T11:57:56.632Z,80.21
2017-12-02T11:58:56.904Z,80.58
2017-12-02T11:59:56.913Z,80.3
2017-12-02T12:00:56.935Z,80.34
2017-12-02T12:01:56.942Z,80.53
2017-12-02T12:02:56.686Z,80.49
2017-12-02T12:03:56.960Z,80.58
2017-12-02T12:04:56.980Z,80.34
2017-12-02T12:05:56.721Z,80.3
2017-12-02T12:06:57.002Z,80.05
2017-12-02T12:07:57.012Z,79.86
2017-12-02T12:08:57.032Z,79.86
2017-12-02T12:09:57.049Z,80.02
2017-12-02T12:10:57.266Z,79.92
2017-12-02T12:11:56.800Z,79.92
2017-12-02T12:12:56.816Z,80.15
2017-12-02T12:13:57.091Z,80.02
2017-12-02T12:14:57.101Z,80.15
2017-12-02T12:15:57.118Z,79.92
2017-12-02T12:16:56.864Z,80.34
2017-12-02T12:17:57.198Z,80.02
2017-12-02T12:18:57.195Z,79.73
2017-12-02T12:19:57.171Z,79.77
2017-12-02T12:20:56.918Z,80.24
2017-12-02T12:21:57.194Z,80.02
2017-12-02T12:22:56.944Z,79.92
2017-12-02T12:23:57.228Z,79.96
2017-12-02T12:24:57.252Z,79.92
2017-12-02T12:25:57.255Z,79.86
2017-12-02T12:26:57.259Z,79.86
2017-12-02T12:27:57.317Z,79.83
2017-12-02T12:28:57.283Z,79.58
2017-12-02T12:29:57.032Z,79.86
2017-12-02T12:30:57.309Z,79.77
2017-12-02T12:31:57.323Z,79.92
2017-12-02T12:32:57.334Z,79.77
2017-12-02T12:33:57.355Z,80.15
2017-12-02T12:34:57.362Z,80.24
2017-12-02T12:35:57.371Z,80.24
2017-12-02T12:36:57.384Z,79.96
2017-12-02T12:37:57.395Z,80.05
2017-12-02T12:38:57.415Z,80.02
2017-12-02T12:39:57.159Z,79.83
2017-12-02T12:40:57.443Z,79.96
2017-12-02T12:41:57.452Z,79.58
2017-12-02T12:42:57.468Z,79.68
2017-12-02T12:43:57.211Z,79.68
2017-12-02T12:44:57.491Z,79.49
2017-12-02T12:45:57.505Z,79.49
2017-12-02T12:46:57.250Z,79.25
2017-12-02T12:47:57.530Z,79.49
2017-12-02T12:48:57.276Z,79.58
2017-12-02T12:49:57.558Z,79.44
2017-12-02T12:50:57.301Z,79.58
2017-12-02T12:51:57.576Z,79.63
2017-12-02T12:52:57.601Z,79.54
2017-12-02T12:53:57.613Z,79.3
2017-12-02T12:54:57.623Z,79.44
2017-12-02T12:55:57.371Z,78.78
2017-12-02T12:56:57.645Z,79.25